Hub


Voltar

 INFORMAÇÕES METEOROLÓGICAS

METAR FOR LBSF


ADDS - METARS form results

(2054 UTC 16 February 2019)
Data provider http://aviationweather.gov/metar/data/
 
METAR text: LBSF 162030Z 31003KT 270V360 8000 NSC 00/M03 Q1029 NOSIG
Conditions at: LBSF (SOFIA , BG) observed 2030 UTC 16 February 2019
Temperature: 0.0°C (32°F)
Dewpoint: -3.0°C (27°F) [RH = 80%]
Pressure (altimeter): 30.38 inches Hg (1029.0 mb)
Winds: from the NW (310 degrees) at 3 MPH (3 knots; 1.5 m/s)
Visibility: 5 miles ( 8 km)
Ceiling: at least 12,000 feet AGL
Clouds: sky clear below 12,000 feet AGL
Weather: no significant weather observed at this time

METAR text: LBSF 162000Z VRB01KT 8000 NSC 01/M02 Q1029 NOSIG
Conditions at: LBSF (SOFIA , BG) observed 2000 UTC 16 February 2019
Temperature: 1.0°C (34°F)
Dewpoint: -2.0°C (28°F) [RH = 80%]
Pressure (altimeter): 30.38 inches Hg (1029.0 mb)
Winds: variable direction winds at 1 MPH (1 knots; 0.5 m/s)
Visibility: 5 miles ( 8 km)
Ceiling: at least 12,000 feet AGL
Clouds: sky clear below 12,000 feet AGL
Weather: no significant weather observed at this time

Forecast for: LBSF (SOFIA , BG)
Text: TAF LBSF 161700Z 1618/1718 VRB04KT CAVOK
Forecast period: 1800 UTC 16 February 2019 to 1800 UTC 17 February 2019
Forecast type: FROM: standard forecast or significant change
Winds: variable direction winds at 5 MPH (4 knots; 2.1 m/s)
Visibility: 6 or more miles 10+ km)
Ceiling: unknown
Clouds: missing
Weather: NSW  (no significant weather)
Text: TEMPO 1702/1706 4000 BR SCT020
Forecast period: 0200 to 0600 UTC 17 February 2019
Forecast type: TEMPORARY: The following changes expected for less than half the time period
Visibility: 2.49 miles (4.01 km)
Ceiling: at least 12,000 feet AGL
Clouds: scattered clouds at 2000 feet AGL
Weather: BR  (mist)


 MAPA DO AEROPORTO


 INFORMAÇÕES DA PISTA

Pista 09 Tamanho da pista 9186 ft Largura da pista 147 ft
Elevação da pista 1739 ft Ranhura da pista 0 ft Proa da pista 95
Pista 27 Tamanho da pista 9186 ft Largura da pista 147 ft
Elevação da pista 1742 ft Ranhura da pista 0 ft Proa da pista 275

 FREQUÊNCIAS DO AEROPORTO

Tipo APP Nome APP Frequência 123.7 MHZ
Tipo ATIS Nome ATIS Frequência 124.05 MHZ
Tipo TWR Nome TWR Frequência 118.1 MHZ

 AUXÍLIOS DE NAVEGAÇÃO PRÓXIMOS AO AEROPORTO

Tipo NDB Nome Bozhourishte Frequência 312 KHZ
Tipo NDB Nome Sofia Frequência 375 KHZ
Tipo NDB Nome Sofia Frequência 335 KHZ
Tipo NDB Nome Sofia Frequência 529 KHZ
Tipo VOR-DME Nome Sofia Frequência 112600 KHZ
Tipo NDB Nome Sofia Frequência 350 KHZ